Time;durP1;ratioP1;P1;durP2;ratioP2;P2;SDS_P1;SDS_P2;PMS_P1;PMS_P2;Temp;Humidity;BMP_temperature;BMP_pressure;BME280_temperature;BME280_humidity;BME280_pressure;Samples;Min_cycle;Max_cycle;Signal;HPM_P1;HPM_P2
2023/05/27 00:02:23;;;;;;;5.70;2.50;;;;;;;19.81;45.64;103154.47;5003389;28;20059;-67
2023/05/27 00:04:49;;;;;;;2.90;2.17;;;;;;;19.79;45.77;103152.94;5004586;28;20049;-67
2023/05/27 00:07:14;;;;;;;4.95;2.35;;;;;;;19.75;45.82;103162.91;5004475;28;20042;-66
2023/05/27 00:09:40;;;;;;;3.70;1.95;;;;;;;19.76;45.74;103156.66;5002985;28;20046;-67
2023/05/27 00:12:05;;;;;;;4.35;2.40;;;;;;;19.78;45.49;103157.38;5005052;28;20046;-66
2023/05/27 00:14:31;;;;;;;4.10;2.22;;;;;;;19.78;45.82;103161.81;5004771;28;20312;-66
2023/05/27 00:16:56;;;;;;;3.80;2.25;;;;;;;19.78;45.63;103157.38;5006064;28;20048;-67
2023/05/27 00:19:24;;;;;;;3.65;2.30;;;;;;;19.76;45.79;103158.47;5006717;28;20068;-67
2023/05/27 00:21:52;;;;;;;5.03;2.35;;;;;;;19.74;45.83;103157.72;5002652;28;20057;-65
2023/05/27 00:24:18;;;;;;;3.75;2.40;;;;;;;19.72;45.79;103160.47;5006300;28;20042;-66
2023/05/27 00:26:44;;;;;;;3.92;2.25;;;;;;;19.74;45.83;103161.19;5005712;28;20061;-66
2023/05/27 00:29:09;;;;;;;3.78;2.40;;;;;;;19.72;45.73;103152.56;5010288;28;20041;-66
2023/05/27 00:31:35;;;;;;;3.65;2.13;;;;;;;19.77;45.60;103147.75;5008666;28;20135;-67
2023/05/27 00:34:02;;;;;;;4.90;2.53;;;;;;;19.74;45.64;103147.97;5008057;28;20097;-66
2023/05/27 00:36:27;;;;;;;4.30;2.38;;;;;;;19.59;45.83;103133.38;5011396;28;20064;-66
2023/05/27 00:38:53;;;;;;;3.55;2.55;;;;;;;19.67;45.89;103146.81;5009354;28;20128;-69
2023/05/27 00:41:19;;;;;;;4.97;2.58;;;;;;;19.67;45.78;103141.53;5007053;28;20057;-67
2023/05/27 00:43:45;;;;;;;3.65;2.25;;;;;;;19.68;45.71;103148.47;5010809;28;20042;-68
2023/05/27 00:46:10;;;;;;;3.53;2.30;;;;;;;19.65;45.89;103153.19;5011705;28;20116;-66
2023/05/27 00:48:36;;;;;;;5.85;2.50;;;;;;;19.61;45.97;103142.84;5008116;28;20034;-66
2023/05/27 00:51:02;;;;;;;4.90;2.30;;;;;;;19.61;45.91;103142.84;5010806;28;20393;-66
2023/05/27 00:53:36;;;;;;;4.60;2.20;;;;;;;19.64;45.85;103148.84;5007919;28;20072;-66
2023/05/27 00:56:02;;;;;;;4.45;2.53;;;;;;;19.59;45.88;103141.31;5008303;28;20049;-66
2023/05/27 00:58:28;;;;;;;4.13;2.50;;;;;;;19.62;45.90;103148.97;5008115;28;20050;-66
2023/05/27 01:00:54;;;;;;;3.08;2.30;;;;;;;19.58;45.96;103150.19;5011553;28;20041;-66
2023/05/27 01:03:20;;;;;;;4.03;2.40;;;;;;;19.59;45.86;103150.06;4993106;28;20472;-66
2023/05/27 01:05:45;;;;;;;4.75;2.50;;;;;;;19.59;45.96;103152.72;5007896;28;20042;-66
2023/05/27 01:08:23;;;;;;;4.90;2.50;;;;;;;19.60;45.84;103149.09;5007037;28;20188;-67
2023/05/27 01:10:52;;;;;;;4.00;2.33;;;;;;;19.61;45.76;103145.50;5008790;28;20042;-67
2023/05/27 01:13:40;;;;;;;4.22;2.42;;;;;;;19.57;45.92;103140.59;5006781;28;20042;-67
2023/05/27 01:16:11;;;;;;;4.13;2.33;;;;;;;19.52;45.93;103143.53;5004971;28;20030;-65
2023/05/27 01:18:40;;;;;;;4.72;2.20;;;;;;;19.53;45.98;103136.44;5009000;28;20033;-66
2023/05/27 01:21:09;;;;;;;3.22;2.28;;;;;;;19.51;46.00;103136.56;5007284;28;20046;-67
2023/05/27 01:23:38;;;;;;;4.13;2.33;;;;;;;19.49;46.09;103140.31;5008111;28;20037;-66
2023/05/27 01:26:05;;;;;;;3.72;2.05;;;;;;;19.47;46.19;103143.06;5008875;28;20134;-66
2023/05/27 01:28:30;;;;;;;4.80;2.65;;;;;;;19.51;45.92;103141.03;5010089;28;20983;-67
2023/05/27 01:31:10;;;;;;;5.25;3.05;;;;;;;19.49;45.99;103142.94;5005201;28;20072;-66
2023/05/27 01:33:40;;;;;;;4.30;2.47;;;;;;;19.48;45.86;103147.41;5006345;28;20888;-66
2023/05/27 01:36:13;;;;;;;4.45;2.40;;;;;;;19.46;46.13;103138.75;5007605;28;20033;-66
2023/05/27 01:38:42;;;;;;;4.28;2.47;;;;;;;19.47;46.02;103136.94;5004788;28;20029;-67
2023/05/27 01:41:09;;;;;;;5.25;2.42;;;;;;;19.48;45.90;103138.63;5005111;28;20056;-66
2023/05/27 01:43:38;;;;;;;4.38;2.90;;;;;;;19.46;46.08;103145.84;5007629;28;20042;-69
2023/05/27 01:46:03;;;;;;;4.57;2.50;;;;;;;19.46;46.05;103144.03;5007964;28;20030;-67
2023/05/27 01:48:29;;;;;;;4.22;2.45;;;;;;;19.43;46.06;103127.59;5010836;28;20052;-68
2023/05/27 01:50:55;;;;;;;4.00;2.38;;;;;;;19.42;46.10;103129.41;5002443;28;20054;-66
2023/05/27 01:53:20;;;;;;;4.95;2.35;;;;;;;19.44;46.06;103132.75;5008122;28;20043;-66
2023/05/27 01:55:46;;;;;;;3.97;2.42;;;;;;;19.43;46.06;103135.53;5007864;28;20421;-67
2023/05/27 01:58:12;;;;;;;3.85;2.25;;;;;;;19.38;46.17;103135.84;5006775;28;20037;-66
2023/05/27 02:00:37;;;;;;;3.95;2.35;;;;;;;19.40;46.01;103136.59;5019421;28;21486;-67
2023/05/27 02:03:03;;;;;;;3.58;2.15;;;;;;;19.40;46.07;103133.13;5008226;28;20066;-67
2023/05/27 02:05:28;;;;;;;3.92;2.30;;;;;;;19.39;46.10;103128.78;5006672;28;20041;-66
2023/05/27 02:07:55;;;;;;;3.67;2.20;;;;;;;19.41;46.06;103129.53;5006708;28;20041;-67
2023/05/27 02:10:21;;;;;;;4.80;2.40;;;;;;;19.40;46.01;103127.84;5006464;28;20045;-67
2023/05/27 02:12:48;;;;;;;6.03;2.60;;;;;;;19.40;46.00;103123.41;5004451;28;20138;-69
2023/05/27 02:15:13;;;;;;;6.20;2.80;;;;;;;19.36;46.11;103111.38;5006648;28;20073;-66
2023/05/27 02:17:44;;;;;;;3.97;2.53;;;;;;;19.35;46.18;103104.41;5007643;28;20484;-66
2023/05/27 02:20:11;;;;;;;4.82;2.85;;;;;;;19.30;46.17;103090.72;4990437;28;20120;-66
2023/05/27 02:22:36;;;;;;;4.38;2.72;;;;;;;19.33;46.05;103107.16;5004584;28;20125;-67
2023/05/27 02:25:02;;;;;;;4.38;2.05;;;;;;;19.37;46.10;103113.03;5009386;28;20081;-66
2023/05/27 02:27:27;;;;;;;5.15;2.50;;;;;;;19.37;46.08;103117.50;5009204;28;20492;-69
2023/05/27 02:29:54;;;;;;;4.13;2.25;;;;;;;19.35;46.04;103114.97;4992725;28;20049;-66
2023/05/27 02:32:19;;;;;;;6.25;2.67;;;;;;;19.36;46.03;103121.94;5002133;28;20030;-66
2023/05/27 02:34:45;;;;;;;3.83;2.58;;;;;;;19.35;46.07;103120.25;5021692;28;20042;-66
2023/05/27 02:37:11;;;;;;;3.63;2.38;;;;;;;19.34;46.13;103129.16;5008364;28;20050;-67
2023/05/27 02:39:37;;;;;;;3.70;2.47;;;;;;;19.37;45.96;103133.34;5007673;28;20053;-66
2023/05/27 02:42:03;;;;;;;3.30;2.47;;;;;;;19.36;45.99;103140.44;5003710;28;20080;-66
2023/05/27 02:44:29;;;;;;;5.05;2.70;;;;;;;19.37;45.93;103128.06;5008662;28;20587;-66
2023/05/27 02:46:54;;;;;;;5.00;2.38;;;;;;;19.36;46.02;103139.59;5022028;28;20041;-66
2023/05/27 02:49:20;;;;;;;3.45;2.25;;;;;;;19.37;45.90;103133.34;5005893;28;20034;-67
2023/05/27 02:51:45;;;;;;;3.78;2.28;;;;;;;19.33;45.96;103133.59;5004973;28;20054;-66
2023/05/27 02:54:11;;;;;;;5.40;2.85;;;;;;;19.31;46.17;103124.09;5008386;28;20037;-66
2023/05/27 02:56:36;;;;;;;3.88;2.35;;;;;;;19.33;46.04;103127.47;5004999;28;20033;-69
2023/05/27 02:59:05;;;;;;;4.20;2.08;;;;;;;19.32;46.07;103131.06;5020554;28;20034;-66
2023/05/27 03:01:31;;;;;;;4.43;2.33;;;;;;;19.36;45.98;103129.84;5006103;28;20045;-64
2023/05/27 03:03:56;;;;;;;4.40;2.40;;;;;;;19.37;45.91;103125.41;5009949;28;20037;-66
2023/05/27 03:06:22;;;;;;;3.10;2.13;;;;;;;19.32;46.01;103116.06;5006646;28;21902;-66
2023/05/27 03:08:47;;;;;;;3.85;2.33;;;;;;;19.31;46.00;103122.31;5008026;28;20050;-66
2023/05/27 03:11:13;;;;;;;2.72;1.98;;;;;;;19.32;45.99;103123.97;5005271;28;20038;-66
2023/05/27 03:13:39;;;;;;;5.18;2.20;;;;;;;19.32;45.97;103115.22;5006937;28;20052;-66
2023/05/27 03:16:05;;;;;;;4.70;2.40;;;;;;;19.29;46.04;103108.38;4991829;28;20041;-69
2023/05/27 03:18:31;;;;;;;4.70;2.13;;;;;;;19.35;45.93;103103.56;5007532;28;20474;-67
2023/05/27 03:20:57;;;;;;;4.05;2.05;;;;;;;19.33;45.98;103091.31;5004645;28;20041;-70
2023/05/27 03:23:23;;;;;;;3.60;2.33;;;;;;;19.35;45.96;103090.34;5003034;28;20038;-68
2023/05/27 03:25:50;;;;;;;4.47;2.30;;;;;;;19.35;45.94;103093.00;5008169;28;20049;-68
2023/05/27 03:28:16;;;;;;;3.97;2.25;;;;;;;19.34;46.05;103089.50;5004192;28;20029;-67
2023/05/27 03:30:43;;;;;;;3.35;2.10;;;;;;;19.32;45.95;103102.00;5006217;28;22061;-68
2023/05/27 03:33:12;;;;;;;4.25;2.00;;;;;;;19.30;46.05;103099.50;5004889;28;20042;-69
2023/05/27 03:35:38;;;;;;;2.78;2.22;;;;;;;19.31;46.10;103101.16;5006283;28;20049;-68
2023/05/27 03:38:04;;;;;;;5.50;2.45;;;;;;;19.33;45.98;103096.59;5008003;28;20053;-68
2023/05/27 03:40:30;;;;;;;4.60;2.60;;;;;;;19.30;45.96;103091.56;5007408;28;20507;-68
2023/05/27 03:42:56;;;;;;;4.50;2.22;;;;;;;19.29;45.99;103097.81;5003841;28;20709;-68
2023/05/27 03:45:22;;;;;;;4.47;2.20;;;;;;;19.31;45.95;103093.25;5023454;28;20535;-68
2023/05/27 03:47:48;;;;;;;3.78;2.13;;;;;;;19.31;45.90;103100.34;5007111;28;20045;-66
2023/05/27 03:50:15;;;;;;;3.53;2.22;;;;;;;19.29;46.00;103096.97;5006489;28;20341;-66
2023/05/27 03:52:40;;;;;;;5.32;2.53;;;;;;;19.29;45.99;103092.53;5006993;28;20041;-67
2023/05/27 03:55:06;;;;;;;4.43;2.05;;;;;;;19.31;45.89;103101.16;5004403;28;20050;-68
2023/05/27 03:57:34;;;;;;;4.13;2.08;;;;;;;19.32;45.84;103094.09;5005211;28;20045;-68
2023/05/27 03:59:59;;;;;;;3.72;2.42;;;;;;;19.36;45.81;103097.31;5007507;28;20035;-67
2023/05/27 04:02:25;;;;;;;5.57;2.58;;;;;;;19.33;45.83;103103.69;5002524;28;20041;-68
2023/05/27 04:04:52;;;;;;;3.25;2.10;;;;;;;19.33;45.85;103101.03;5019022;28;20052;-66
2023/05/27 04:07:20;;;;;;;3.63;2.10;;;;;;;19.32;45.82;103097.56;5003637;28;20050;-70
2023/05/27 04:09:45;;;;;;;3.63;2.97;;;;;;;19.32;45.83;103097.56;5008458;28;20045;-66
2023/05/27 04:12:11;;;;;;;3.67;2.10;;;;;;;19.32;45.79;103092.28;5006347;28;20046;-67
2023/05/27 04:14:36;;;;;;;4.18;2.17;;;;;;;19.34;45.73;103094.81;5007456;28;20045;-68
2023/05/27 04:17:02;;;;;;;4.40;2.50;;;;;;;19.28;45.83;103088.22;5004136;28;20435;-67
2023/05/27 04:19:28;;;;;;;3.65;2.13;;;;;;;19.30;45.79;103088.09;5007047;28;20076;-68
2023/05/27 04:21:54;;;;;;;4.25;2.40;;;;;;;19.35;45.61;103093.00;5021423;28;20089;-68
2023/05/27 04:24:19;;;;;;;3.47;2.13;;;;;;;19.35;45.84;103093.84;5006235;28;20041;-66
2023/05/27 04:26:47;;;;;;;3.90;2.20;;;;;;;19.37;45.71;103101.63;5008499;28;20041;-68
2023/05/27 04:29:15;;;;;;;4.07;1.98;;;;;;;19.33;45.79;103096.59;5002351;28;20066;-68
2023/05/27 04:31:42;;;;;;;3.85;2.40;;;;;;;19.34;45.70;103086.88;5004454;28;20034;-68
2023/05/27 04:34:13;;;;;;;4.25;2.33;;;;;;;19.36;45.67;103087.59;5003939;28;20587;-68
2023/05/27 04:36:40;;;;;;;4.47;2.33;;;;;;;19.35;45.72;103100.91;5008566;28;20608;-68
2023/05/27 04:39:11;;;;;;;5.43;2.45;;;;;;;19.30;45.69;103088.09;5002158;28;20030;-68
2023/05/27 04:41:39;;;;;;;3.95;2.25;;;;;;;19.33;45.69;103091.31;5020977;28;20035;-68
2023/05/27 04:44:05;;;;;;;2.95;2.00;;;;;;;19.36;45.70;103097.31;5004034;28;20050;-68
2023/05/27 04:46:38;;;;;;;3.10;2.08;;;;;;;19.39;45.60;103086.50;5004193;28;20041;-68
2023/05/27 04:49:04;;;;;;;3.55;2.30;;;;;;;19.39;45.60;103092.66;5002205;28;20085;-67
2023/05/27 04:51:32;;;;;;;3.53;2.20;;;;;;;19.40;45.57;103077.63;5005920;28;20050;-68
2023/05/27 04:53:57;;;;;;;5.68;2.13;;;;;;;19.39;45.66;103086.50;4988310;28;20622;-69
2023/05/27 04:56:23;;;;;;;4.20;2.13;;;;;;;19.38;45.68;103090.94;5005614;28;20104;-67
2023/05/27 04:58:50;;;;;;;4.38;2.20;;;;;;;19.37;45.69;103088.44;5003496;28;20096;-68
2023/05/27 05:01:22;;;;;;;4.72;2.20;;;;;;;19.38;45.58;103087.47;5003824;28;20057;-68
2023/05/27 05:04:13;;;;;;;3.25;1.95;;;;;;;19.38;45.47;103083.03;5000957;28;20140;-65
2023/05/27 05:06:55;;;;;;;2.95;2.00;;;;;;;19.38;45.67;103090.09;5003747;28;20041;-68
2023/05/27 05:09:21;;;;;;;3.97;1.85;;;;;;;19.38;45.38;103083.03;5003213;28;20038;-68
2023/05/27 05:11:47;;;;;;;4.65;2.47;;;;;;;19.35;45.68;103091.19;5004451;28;20050;-69
2023/05/27 05:14:13;;;;;;;2.72;2.20;;;;;;;19.33;45.73;103093.13;4999890;28;20038;-68
2023/05/27 05:16:40;;;;;;;3.10;2.15;;;;;;;19.37;45.59;103091.91;5010318;28;20045;-68
2023/05/27 05:19:07;;;;;;;2.90;1.88;;;;;;;19.36;45.64;103078.81;5005502;28;20077;-68
2023/05/27 05:21:36;;;;;;;2.97;1.60;;;;;;;19.38;45.58;103084.81;5024098;28;20097;-68
2023/05/27 05:24:03;;;;;;;4.22;2.05;;;;;;;19.38;45.65;103083.03;5009032;28;20042;-66
2023/05/27 05:26:30;;;;;;;4.95;2.00;;;;;;;19.36;45.55;103084.09;5010130;28;20432;-65
2023/05/27 05:28:57;;;;;;;3.47;2.03;;;;;;;19.33;45.55;103071.97;5008600;28;20042;-66
2023/05/27 05:31:23;;;;;;;5.15;2.30;;;;;;;19.40;45.36;103081.13;5009185;28;20053;-66
2023/05/27 05:33:50;;;;;;;4.55;2.28;;;;;;;19.42;45.50;103075.72;4991444;28;20046;-66
2023/05/27 05:36:17;;;;;;;5.00;2.33;;;;;;;19.40;45.51;103072.34;5007013;28;20038;-66
2023/05/27 05:38:52;;;;;;;3.53;2.35;;;;;;;19.40;45.44;103075.00;5007661;28;20068;-66
2023/05/27 05:41:17;;;;;;;4.10;2.10;;;;;;;19.40;45.62;103067.06;5011586;28;20042;-67
2023/05/27 05:43:43;;;;;;;4.18;2.15;;;;;;;19.39;45.59;103060.06;4992173;28;20049;-66
2023/05/27 05:46:09;;;;;;;3.13;2.13;;;;;;;19.39;45.50;103050.38;5006769;28;20038;-66
2023/05/27 05:48:35;;;;;;;3.28;2.15;;;;;;;19.40;45.45;103061.78;5007697;28;20139;-66
2023/05/27 05:51:01;;;;;;;4.20;1.90;;;;;;;19.37;45.68;103062.00;5006591;28;20054;-66
2023/05/27 05:53:28;;;;;;;5.93;2.40;;;;;;;19.39;45.35;103054.78;5007597;28;20042;-69
2023/05/27 05:55:54;;;;;;;4.40;1.98;;;;;;;19.41;45.44;103052.91;4994753;28;20390;-66
2023/05/27 05:58:20;;;;;;;4.55;2.08;;;;;;;19.40;45.49;103064.44;5009743;28;20050;-67
2023/05/27 06:00:47;;;;;;;3.47;2.10;;;;;;;19.41;45.49;103059.03;5005348;28;20045;-67
2023/05/27 06:03:28;;;;;;;4.72;2.42;;;;;;;19.37;45.45;103062.84;5006517;28;20065;-65
2023/05/27 06:05:58;;;;;;;3.20;2.00;;;;;;;19.42;45.41;103070.44;5009191;28;20042;-67
2023/05/27 06:08:24;;;;;;;5.78;2.50;;;;;;;19.41;45.35;103066.09;5007445;28;20152;-66
2023/05/27 06:11:02;;;;;;;4.30;2.60;;;;;;;19.35;45.40;103064.78;5006313;28;20038;-69
2023/05/27 06:13:30;;;;;;;3.20;1.90;;;;;;;19.41;45.36;103076.69;5007887;28;20068;-69
2023/05/27 06:15:58;;;;;;;4.07;2.35;;;;;;;19.42;45.48;103076.56;5004101;28;20160;-69
2023/05/27 06:18:24;;;;;;;4.30;2.28;;;;;;;19.43;45.57;103072.09;5009185;28;20069;-66
2023/05/27 06:20:49;;;;;;;3.38;2.13;;;;;;;19.42;45.47;103068.63;5007685;28;20057;-66
2023/05/27 06:23:15;;;;;;;4.53;2.78;;;;;;;19.44;45.32;103065.84;5007181;28;20076;-67
2023/05/27 06:25:59;;;;;;;3.95;2.20;;;;;;;19.46;45.32;103058.63;5006625;28;20068;-65
2023/05/27 06:28:28;;;;;;;3.97;2.08;;;;;;;19.44;45.17;103050.84;5006077;28;20990;-65
2023/05/27 06:30:54;;;;;;;5.65;2.33;;;;;;;19.45;45.30;103055.16;4988437;28;20034;-66
2023/05/27 06:33:22;;;;;;;4.30;1.90;;;;;;;19.46;45.39;103056.00;5008569;28;20040;-66
2023/05/27 06:35:48;;;;;;;3.90;2.28;;;;;;;19.49;45.24;103056.59;5005650;28;20511;-66
2023/05/27 06:38:13;;;;;;;5.35;2.67;;;;;;;19.52;45.20;103048.41;5004768;28;20046;-67
2023/05/27 06:40:39;;;;;;;4.95;2.17;;;;;;;19.56;45.16;103044.56;4991681;28;20034;-68
2023/05/27 06:43:06;;;;;;;6.18;2.33;;;;;;;19.59;45.09;103040.88;5005315;28;20044;-66
2023/05/27 06:46:04;;;;;;;4.85;2.20;;;;;;;19.61;45.04;103036.31;4984118;28;20049;-66
2023/05/27 06:48:40;;;;;;;3.67;2.00;;;;;;;19.63;44.95;103038.81;4995335;28;20037;-69
2023/05/27 06:51:06;;;;;;;3.85;1.83;;;;;;;19.65;44.86;103035.06;5004670;28;20131;-66
2023/05/27 06:53:34;;;;;;;4.28;2.10;;;;;;;19.71;44.82;103036.38;5021703;28;20046;-66
2023/05/27 06:56:05;;;;;;;3.45;2.15;;;;;;;19.71;44.75;103036.38;5004995;28;20034;-66
2023/05/27 06:58:50;;;;;;;2.47;1.73;;;;;;;19.83;44.59;103041.50;5007302;28;20056;-67
2023/05/27 07:01:17;;;;;;;4.65;2.15;;;;;;;19.91;44.44;103039.03;5007844;28;20097;-67
2023/05/27 07:04:11;;;;;;;4.53;2.30;;;;;;;19.98;44.32;103028.81;4998470;28;20046;-66
2023/05/27 07:06:46;;;;;;;4.25;2.20;;;;;;;20.04;44.40;103041.53;5006119;28;20292;-66
2023/05/27 07:09:12;;;;;;;3.55;1.98;;;;;;;20.11;44.21;103039.22;5007355;28;20041;-64
2023/05/27 07:11:37;;;;;;;2.80;1.85;;;;;;;20.12;44.45;103035.59;5005810;28;20034;-66
2023/05/27 07:14:09;;;;;;;3.28;1.90;;;;;;;20.12;44.35;103043.53;5006669;28;20365;-69
2023/05/27 07:16:36;;;;;;;4.55;2.58;;;;;;;20.07;44.35;103017.47;5009083;28;20152;-66
2023/05/27 07:19:02;;;;;;;4.30;2.30;;;;;;;20.20;44.11;103031.34;5007268;28;20045;-66
2023/05/27 07:21:32;;;;;;;4.88;2.30;;;;;;;20.22;44.38;103037.34;5006608;28;20034;-67
2023/05/27 07:24:03;;;;;;;4.60;2.03;;;;;;;20.27;44.24;103034.28;4990476;28;21997;-68
2023/05/27 07:26:33;;;;;;;4.28;2.40;;;;;;;20.31;43.96;103030.44;5008337;28;20026;-66
2023/05/27 07:29:00;;;;;;;4.50;2.38;;;;;;;20.34;44.11;103027.53;4990213;28;20076;-67
2023/05/27 07:31:46;;;;;;;4.95;2.20;;;;;;;20.37;44.02;103023.78;5007481;28;20136;-66
2023/05/27 07:34:14;;;;;;;4.10;2.28;;;;;;;20.40;44.12;103027.00;4985044;28;20048;-66
2023/05/27 07:36:40;;;;;;;5.82;2.40;;;;;;;20.44;43.93;103028.44;5017045;28;20693;-66
2023/05/27 07:39:07;;;;;;;5.40;2.67;;;;;;;20.48;43.86;103029.06;5021533;28;20038;-66
2023/05/27 07:41:33;;;;;;;6.43;2.50;;;;;;;20.51;44.02;103020.84;5004935;28;20424;-66
2023/05/27 07:43:59;;;;;;;5.15;2.10;;;;;;;20.49;43.73;103017.50;5006573;28;20153;-69
2023/05/27 07:46:25;;;;;;;5.20;2.30;;;;;;;20.51;43.99;103024.31;5008206;28;20240;-66
2023/05/27 07:48:51;;;;;;;4.00;2.15;;;;;;;20.54;43.95;103015.28;5008542;28;20041;-69
2023/05/27 07:51:16;;;;;;;2.83;2.20;;;;;;;20.59;43.95;103018.38;5005784;28;20062;-65
2023/05/27 07:53:42;;;;;;;4.80;2.15;;;;;;;20.62;43.86;103019.91;5009654;28;20277;-66
2023/05/27 07:56:08;;;;;;;5.32;2.35;;;;;;;20.62;43.93;103019.91;5006029;28;20845;-66
2023/05/27 07:58:34;;;;;;;2.72;1.90;;;;;;;20.65;43.77;103017.00;5008469;28;20045;-67
2023/05/27 08:01:11;;;;;;;5.13;2.38;;;;;;;20.67;43.83;103015.91;5005834;28;20030;-67
2023/05/27 08:03:37;;;;;;;8.38;2.38;;;;;;;20.67;43.80;103004.47;5005553;28;20809;-67
2023/05/27 08:06:13;;;;;;;5.63;2.42;;;;;;;20.70;43.51;103002.41;5006046;28;20166;-69
2023/05/27 08:08:44;;;;;;;6.22;2.30;;;;;;;20.70;43.73;102998.91;5008779;28;20347;-67
2023/05/27 08:11:13;;;;;;;5.07;2.53;;;;;;;20.70;43.65;102988.31;5005744;28;20124;-67
2023/05/27 08:13:53;;;;;;;8.23;2.40;;;;;;;20.68;43.82;102977.88;5005029;28;20042;-66
2023/05/27 08:16:57;;;;;;;5.45;2.15;;;;;;;20.72;43.88;102994.31;4996721;28;20054;-66
2023/05/27 08:19:38;;;;;;;4.35;2.38;;;;;;;20.74;43.81;102974.69;5005927;28;20496;-66
2023/05/27 08:22:21;;;;;;;4.97;2.40;;;;;;;20.78;43.87;102967.31;4997402;28;20131;-66
2023/05/27 08:25:10;;;;;;;4.25;2.40;;;;;;;20.82;43.49;102968.69;4980002;28;20745;-66
2023/05/27 08:28:01;;;;;;;4.72;2.13;;;;;;;20.84;43.40;102956.19;5006615;28;20052;-67
2023/05/27 08:30:34;;;;;;;6.00;2.50;;;;;;;20.86;43.45;102958.69;5009301;28;20044;-66
2023/05/27 08:33:09;;;;;;;6.05;2.55;;;;;;;20.88;43.58;102959.41;5008446;28;20100;-66
2023/05/27 08:35:35;;;;;;;3.85;2.28;;;;;;;20.90;43.33;102958.28;5007082;28;20480;-67
2023/05/27 08:38:01;;;;;;;3.97;2.10;;;;;;;20.91;43.42;102952.00;5004198;28;20345;-67
2023/05/27 08:40:31;;;;;;;4.90;2.13;;;;;;;20.91;43.54;102956.47;5009408;28;20038;-66
2023/05/27 08:42:58;;;;;;;5.72;2.60;;;;;;;20.92;43.45;102958.16;5006369;28;20070;-66
2023/05/27 08:45:24;;;;;;;3.78;2.40;;;;;;;20.94;43.50;102949.09;5007077;28;20112;-66
2023/05/27 08:47:50;;;;;;;2.97;2.05;;;;;;;20.96;43.12;102944.50;5009853;28;20042;-67
2023/05/27 08:50:22;;;;;;;4.35;2.13;;;;;;;20.96;43.40;102931.25;4994581;28;20029;-67
2023/05/27 08:52:54;;;;;;;3.70;2.20;;;;;;;20.99;43.33;102933.63;5011554;28;20381;-66
2023/05/27 08:55:22;;;;;;;2.97;2.15;;;;;;;21.00;43.46;102931.81;5008531;28;20034;-66
2023/05/27 08:57:56;;;;;;;5.18;2.35;;;;;;;21.02;43.11;102927.25;5026289;28;20045;-67
2023/05/27 09:00:24;;;;;;;4.88;2.15;;;;;;;21.02;43.34;102920.13;5011209;28;20026;-66
2023/05/27 09:02:56;;;;;;;4.60;2.15;;;;;;;21.04;43.36;102934.06;5016411;28;20042;-67
2023/05/27 09:05:22;;;;;;;4.97;2.20;;;;;;;21.04;43.43;102926.13;5009357;28;20040;-66
2023/05/27 09:07:48;;;;;;;4.47;2.55;;;;;;;21.02;43.19;102917.47;5012939;28;20041;-68
2023/05/27 09:10:13;;;;;;;6.97;2.85;;;;;;;21.05;43.28;102914.56;5013373;28;20042;-66
2023/05/27 09:12:44;;;;;;;4.82;2.47;;;;;;;21.06;43.12;102921.53;5010941;28;20185;-66
2023/05/27 09:15:10;;;;;;;5.68;2.08;;;;;;;21.01;43.12;102907.84;5011093;28;20095;-66
2023/05/27 09:17:43;;;;;;;5.70;2.17;;;;;;;21.06;43.20;102912.75;5009534;28;20496;-66
2023/05/27 09:20:10;;;;;;;5.32;2.50;;;;;;;21.05;43.41;102909.25;5009996;28;20099;-66
2023/05/27 09:22:37;;;;;;;5.15;2.58;;;;;;;21.07;43.49;102899.34;5008864;28;20042;-66
2023/05/27 09:25:03;;;;;;;4.78;2.47;;;;;;;21.07;43.34;102898.50;5010574;28;20065;-66
2023/05/27 09:27:30;;;;;;;3.67;2.05;;;;;;;21.07;43.09;102907.31;5012012;28;20097;-66
2023/05/27 09:29:56;;;;;;;10.75;2.40;;;;;;;21.03;43.13;102900.63;5012315;28;20042;-66
2023/05/27 09:32:30;;;;;;;5.20;2.22;;;;;;;21.07;43.45;102896.72;5007439;28;20104;-66
2023/05/27 09:35:00;;;;;;;4.25;2.10;;;;;;;21.07;43.33;102901.16;5012989;28;20061;-67
2023/05/27 09:37:34;;;;;;;4.93;2.33;;;;;;;21.07;43.27;102901.16;5009822;28;20091;-65
2023/05/27 09:40:12;;;;;;;5.72;2.38;;;;;;;21.06;43.51;102895.03;5014761;28;20986;-68
2023/05/27 09:42:48;;;;;;;5.43;2.38;;;;;;;21.07;43.19;102887.91;5012663;28;20148;-66
2023/05/27 09:45:18;;;;;;;5.18;2.40;;;;;;;21.06;43.34;102895.03;5008833;28;20531;-68
2023/05/27 09:47:51;;;;;;;5.60;2.40;;;;;;;21.05;43.45;102885.41;5011575;28;20035;-69
2023/05/27 09:50:19;;;;;;;5.05;2.47;;;;;;;21.05;43.30;102882.75;5011725;28;20057;-67
2023/05/27 09:52:47;;;;;;;4.78;2.55;;;;;;;21.02;43.43;102876.91;5011239;28;20497;-69
2023/05/27 09:55:13;;;;;;;5.78;2.28;;;;;;;21.05;43.40;102887.22;5011270;28;20236;-69
2023/05/27 09:57:40;;;;;;;4.45;2.00;;;;;;;20.98;43.36;102872.84;5012780;28;20044;-68
2023/05/27 10:00:13;;;;;;;4.70;2.42;;;;;;;21.03;43.36;102873.28;5009421;28;20049;-68
2023/05/27 10:02:41;;;;;;;5.18;2.40;;;;;;;20.99;43.51;102867.41;5009316;28;20034;-68
2023/05/27 10:05:08;;;;;;;3.50;2.03;;;;;;;21.03;43.59;102875.94;5011981;28;20053;-68
2023/05/27 10:07:38;;;;;;;5.18;2.70;;;;;;;21.02;43.26;102863.66;5011533;28;20044;-67
2023/05/27 10:10:04;;;;;;;;;;;;;;;21.01;43.36;102860.19;5013707;28;20041;-68
2023/05/27 10:12:30;;;;;;;5.28;2.35;;;;;;;21.00;43.46;102855.84;5013820;28;19979;-68
2023/05/27 10:14:56;;;;;;;5.88;3.03;;;;;;;21.00;43.59;102858.47;5012795;28;20468;-68
2023/05/27 10:17:21;;;;;;;3.22;1.95;;;;;;;20.97;43.37;102855.28;5011072;28;20049;-68
2023/05/27 10:19:55;;;;;;;3.13;2.00;;;;;;;20.97;43.45;102849.97;5010108;28;20416;-67
2023/05/27 10:22:22;;;;;;;4.97;2.65;;;;;;;20.98;43.59;102851.66;5012086;28;20129;-68
2023/05/27 10:24:48;;;;;;;5.00;2.63;;;;;;;20.97;43.36;102853.47;5013468;28;20049;-68
2023/05/27 10:27:14;;;;;;;4.60;2.72;;;;;;;20.93;43.54;102844.13;5012006;28;20038;-68
2023/05/27 10:29:39;;;;;;;7.15;2.85;;;;;;;20.96;43.48;102843.84;5012767;28;20562;-68
2023/05/27 10:32:05;;;;;;;3.83;2.47;;;;;;;20.97;43.68;102842.03;5011360;28;20054;-68
2023/05/27 10:34:37;;;;;;;4.88;2.30;;;;;;;20.96;43.68;102841.19;5009236;28;20041;-68
2023/05/27 10:37:03;;;;;;;4.82;2.45;;;;;;;20.94;43.58;102831.72;5025446;28;20049;-67
2023/05/27 10:39:29;;;;;;;5.40;2.38;;;;;;;20.95;43.46;102836.88;5010239;28;20396;-68
2023/05/27 10:41:57;;;;;;;3.53;2.40;;;;;;;20.95;43.60;102836.03;5011573;28;20049;-68
2023/05/27 10:44:32;;;;;;;4.95;2.60;;;;;;;20.94;43.48;102837.84;5009857;28;20125;-67
2023/05/27 10:47:10;;;;;;;5.03;2.20;;;;;;;20.94;43.70;102829.91;5011344;28;20085;-68
2023/05/27 10:49:38;;;;;;;4.40;2.50;;;;;;;20.94;43.53;102832.56;5012597;28;20525;-68
2023/05/27 10:52:15;;;;;;;6.75;2.50;;;;;;;20.93;43.72;102830.88;5009181;28;20145;-67
2023/05/27 10:54:43;;;;;;;4.22;2.85;;;;;;;20.93;43.50;102822.09;5011419;28;20097;-66
2023/05/27 10:57:09;;;;;;;5.32;2.67;;;;;;;20.90;43.58;102817.09;5011541;28;20037;-66
2023/05/27 10:59:49;;;;;;;7.95;2.80;;;;;;;20.93;43.50;102822.09;5009544;28;20045;-67
2023/05/27 11:02:16;;;;;;;3.30;2.25;;;;;;;20.91;43.74;102811.66;5008058;28;20034;-66
2023/05/27 11:04:42;;;;;;;3.20;1.92;;;;;;;20.89;43.50;102810.97;5006331;28;20033;-66
2023/05/27 11:07:08;;;;;;;6.15;2.05;;;;;;;20.91;43.30;102803.72;5013655;28;20036;-67
2023/05/27 11:09:47;;;;;;;3.42;2.30;;;;;;;20.92;43.56;102799.25;5007403;28;20165;-68
2023/05/27 11:12:17;;;;;;;2.90;1.97;;;;;;;20.91;43.74;102795.75;5006068;28;20092;-67
2023/05/27 11:14:50;;;;;;;4.43;2.20;;;;;;;20.91;43.53;102786.97;5010909;28;20044;-66
2023/05/27 11:17:16;;;;;;;5.93;2.22;;;;;;;20.91;43.58;102781.69;5010657;28;20052;-66
2023/05/27 11:19:44;;;;;;;4.55;2.20;;;;;;;20.91;43.50;102781.69;5008890;28;20046;-67
2023/05/27 11:22:10;;;;;;;3.42;1.90;;;;;;;20.93;43.54;102775.28;5011624;28;20045;-64
2023/05/27 11:24:37;;;;;;;5.78;2.55;;;;;;;20.93;43.66;102769.13;5006609;28;20056;-66
2023/05/27 11:27:10;;;;;;;4.97;2.40;;;;;;;20.92;43.49;102773.59;5008349;28;20041;-65
2023/05/27 11:29:40;;;;;;;3.33;2.55;;;;;;;20.91;43.74;102766.63;5012707;28;20042;-65
2023/05/27 11:32:06;;;;;;;;;;;;;;;20.92;43.57;102765.66;5010772;28;20416;-65
2023/05/27 11:34:34;;;;;;;4.18;2.22;;;;;;;20.91;43.65;102756.03;5009623;28;19997;-65